AirNav   Everest Fuels
 
 590 users online  

7KY0 Murray Calloway County Hospital Heliport
Murray, Kentucky, USA

GOING TO MURRAY?


FAA INFORMATION EFFECTIVE 18 JUNE 2020

Location

FAA Identifier: 7KY0
Lat/Long: 36-36-26.7400N 088-18-36.4500W
36-36.445667N 088-18.607500W
36.6074278,-88.3101250
(estimated)
Elevation: 525 ft. / 160 m (estimated)
Variation: 03W (2020)
From city: 1 mile NE of MURRAY, KY
Time zone: UTC -5 (UTC -6 during Standard Time)
Zip code: 42071

Heliport Operations

Heliport use: Private use. Permission required prior to landing
Activation date: 07/2010
Control tower: no
ARTCC: MEMPHIS CENTER
FSS: LOUISVILLE FLIGHT SERVICE STATION
Attendance: CONTINUOUS
Wind indicator: yes
Segmented circle: no

Heliport Communications

WX AWOS-3 at CEY (5 nm NW): 119.975 (270-489-2424)
WX AWOS-3 at M25 (16 nm NW): 120.625 (270-247-2094)
WX AWOS-3 at PHT (17 nm S): 118.825 (731-644-0451)
  • APCH/DEP SVC PRVDD BY MEMPHIS ARTCC (ZME) ON 133.65/292.15 (PADUCAH RCAG).

Nearby radio navigation aids

VOR radial/distance  VOR name  Freq  Var
CNGr131/34.9CUNNINGHAM VOR/DME113.1003E

 
NDB name  Hdg/Dist  Freq  Var  ID
TRAINER013/22.141000ETIQ - .. --.-
HUNTINGDON016/32.021702WHZD .... --.. -..

Heliport Services

Runway Information

Helipad H1

Dimensions: 50 x 50 ft. / 15 x 15 m
Surface: concrete
Latitude: 36-36.445667N
Longitude: 088-18.607500W
Elevation: 525.0 ft.
Traffic pattern: leftleft
Obstructions: ant, lighted
158 FT LGTD ANTENNA 225 FT E OF PAD.

Heliport Ownership and Management from official FAA records

Ownership: Privately-owned
Owner: MURRAY CALLOWAY COUNTY HOSPITAL
803 POPLAR ST
MURRAY, KY 42071
Phone 270-762-1100
Manager: SCARLETT BARNETT
803 POPLAR ST
MURRAY, KY 42071
Phone 270-752-2180
270-762-1134.

Additional Remarks

OWNER DESIRES ARPT NOT BE CHARTED.
FOR CD CTC MEMPHIS ARTCC AT 901-368-8453.

Instrument Procedures

There are no published instrument procedures at 7KY0.

Some nearby airports with instrument procedures:

KCEY - Kyle-Oakley Field Airport (5 nm NW)
M25 - Mayfield Graves County Airport (16 nm NW)
KPHT - Henry County Airport (17 nm S)
KHZD - Carroll County Airport (32 nm S)
KPAH - Barkley Regional Airport (35 nm NW)
 
Loc | Ops | Rwys | IFR | FBO | Links
Com | Nav | Svcs | Stats | Notes
Aerial photo
No photo
 
Sectional chart

 
Airport distance calculator
Flying to Murray Calloway County Hospital Heliport? Find the distance to fly.

From to 7KY0

Sunrise and sunset
Times for 11-Jul-2020
 Local
(UTC-5)
 Zulu
(UTC)
Morning civil twilight05:1510:15
Sunrise05:4510:45
Sunset20:1201:12
Evening civil twilight20:4201:42

Current date and time
Zulu (UTC)  11-Jul-2020 12:04:50
Local (UTC-5)  11-Jul-2020 07:04:50
 
METAR
KCEY 
5nm NW 
111155Z AUTO 00000KT 10SM CLR 23/19 A3002 RMK AO1
KM25 
16nm NW 
111155Z AUTO 00000KT 10SM CLR 20/19 A3002 RMK AO2 PWINO
KPHT 
17nm S 
111155Z AUTO 00000KT 1 3/4SM BR CLR 21/20 A3001 RMK A01
TAF
KPAH 
35nm NW 
111122Z 1112/1212 25006KT P6SM SCT150 FM120100 00000KT P6SM VCTS SCT050CB FM120600 27005KT P6SM BKN250
KHOP 
39nm E 
110800Z 1108/1214 VRB06KT 9999 SKC QNH2992INS BECMG 1112/1113 30010G15KT 9999 SKC QNH2990INS BECMG 1123/1124 VRB06KT 9999 FEW090 QNH2981INS TEMPO 1207/1214 23015G30KT 4800 +TSRA BKN020CB TX33/1120Z TN20/1108Z
KCKV 
43nm E 
111120Z 1112/1212 31003KT P6SM FEW250 FM111600 32008G16KT P6SM FEW250 FM120200 VRB03KT P6SM FEW250 FM120700 VRB04KT P6SM VCTS BKN050CB FM120900 VRB05KT 5SM -TSRA BKN040CB
NOTAMs
Click for the latest NOTAMs
NOTAMs are issued by the DoD/FAA and will open in a separate window not controlled by AirNav.

 

 
 

Would you like to see your business listed on this page?

 If your business provides an interesting product or service to pilots, flight crews, aircraft, or users of the Murray Calloway County Hospital Heliport, you should consider listing it here.  To start the listing process, click on the button below
 
Add a business
 

Other Pages about Murray Calloway County Hospital Heliport

Update a link
 
Copyright © AirNav, LLC. All rights reserved. Privacy Policy  Contact